sensor_id;sensor_type;location;lat;lon;timestamp;pressure;altitude;pressure_sealevel;temperature;humidity
31911;BME280;18457;52.432;16.914;2022-11-06T00:02:14;100912.20;;;6.98;96.73
31911;BME280;18457;52.432;16.914;2022-11-06T00:04:50;100909.66;;;7.04;96.21
31911;BME280;18457;52.432;16.914;2022-11-06T00:07:22;100910.20;;;7.08;95.95
31911;BME280;18457;52.432;16.914;2022-11-06T00:09:54;100908.03;;;7.09;96.01
31911;BME280;18457;52.432;16.914;2022-11-06T00:12:25;100913.42;;;7.15;95.91
31911;BME280;18457;52.432;16.914;2022-11-06T00:14:57;100924.91;;;7.18;95.70
31911;BME280;18457;52.432;16.914;2022-11-06T00:17:29;100928.86;;;7.18;95.57
31911;BME280;18457;52.432;16.914;2022-11-06T00:20:01;100931.03;;;7.16;95.59
31911;BME280;18457;52.432;16.914;2022-11-06T00:22:34;100934.08;;;7.17;95.42
31911;BME280;18457;52.432;16.914;2022-11-06T00:25:07;100928.34;;;7.12;95.57
31911;BME280;18457;52.432;16.914;2022-11-06T00:27:40;100928.17;;;7.05;95.85
31911;BME280;18457;52.432;16.914;2022-11-06T00:30:13;100930.31;;;7.14;95.28
31911;BME280;18457;52.432;16.914;2022-11-06T00:32:45;100930.67;;;7.13;94.91
31911;BME280;18457;52.432;16.914;2022-11-06T00:35:17;100925.29;;;7.06;95.51
31911;BME280;18457;52.432;16.914;2022-11-06T00:37:48;100918.66;;;7.00;95.15
31911;BME280;18457;52.432;16.914;2022-11-06T00:40:20;100921.36;;;6.96;95.38
31911;BME280;18457;52.432;16.914;2022-11-06T00:42:56;100920.45;;;6.90;95.79
31911;BME280;18457;52.432;16.914;2022-11-06T00:45:28;100920.27;;;6.94;95.90
31911;BME280;18457;52.432;16.914;2022-11-06T00:48:00;100921.89;;;6.98;95.35
31911;BME280;18457;52.432;16.914;2022-11-06T00:50:32;100922.44;;;6.89;95.33
31911;BME280;18457;52.432;16.914;2022-11-06T00:53:04;100922.64;;;6.77;95.43
31911;BME280;18457;52.432;16.914;2022-11-06T00:55:36;100923.34;;;6.78;95.38
31911;BME280;18457;52.432;16.914;2022-11-06T00:58:08;100923.52;;;6.79;95.32
31911;BME280;18457;52.432;16.914;2022-11-06T01:00:40;100923.16;;;6.87;95.09
31911;BME280;18457;52.432;16.914;2022-11-06T01:03:12;100923.34;;;6.80;95.05
31911;BME280;18457;52.432;16.914;2022-11-06T01:05:44;100920.12;;;6.75;95.33
31911;BME280;18457;52.432;16.914;2022-11-06T01:08:15;100920.29;;;6.70;95.52
31911;BME280;18457;52.432;16.914;2022-11-06T01:57:24;100917.97;;;6.53;96.14
31911;BME280;18457;52.432;16.914;2022-11-06T01:59:56;100922.79;;;6.41;96.50
31911;BME280;18457;52.432;16.914;2022-11-06T02:02:28;100922.61;;;6.49;96.72
31911;BME280;18457;52.432;16.914;2022-11-06T02:05:00;100920.99;;;6.53;96.07
31911;BME280;18457;52.432;16.914;2022-11-06T02:07:33;100920.27;;;6.42;96.34
31911;BME280;18457;52.432;16.914;2022-11-06T02:10:08;100923.15;;;6.42;96.70
31911;BME280;18457;52.432;16.914;2022-11-06T02:13:02;100923.34;;;6.47;95.88
31911;BME280;18457;52.432;16.914;2022-11-06T02:15:45;100917.77;;;6.49;95.39
31911;BME280;18457;52.432;16.914;2022-11-06T02:18:41;100916.48;;;6.28;96.15
31911;BME280;18457;52.432;16.914;2022-11-06T02:24:46;100917.73;;;6.23;97.06
31911;BME280;18457;52.432;16.914;2022-11-06T02:27:22;100916.85;;;6.29;96.45
31911;BME280;18457;52.432;16.914;2022-11-06T02:29:59;100909.85;;;6.22;95.47
31911;BME280;18457;52.432;16.914;2022-11-06T02:32:37;100906.98;;;6.16;94.75
31911;BME280;18457;52.432;16.914;2022-11-06T02:35:19;100905.89;;;6.22;95.33
31911;BME280;18457;52.432;16.914;2022-11-06T02:37:55;100911.45;;;6.18;95.58
31911;BME280;18457;52.432;16.914;2022-11-06T02:40:31;100911.36;;;5.83;98.24
31911;BME280;18457;52.432;16.914;2022-11-06T02:43:06;100917.70;;;6.03;97.81
31911;BME280;18457;52.432;16.914;2022-11-06T02:45:42;100918.63;;;6.16;96.88
31911;BME280;18457;52.432;16.914;2022-11-06T02:48:18;100915.77;;;6.20;96.19
31911;BME280;18457;52.432;16.914;2022-11-06T02:50:51;100918.09;;;6.20;96.09
31911;BME280;18457;52.432;16.914;2022-11-06T02:53:26;100920.78;;;6.12;96.42
31911;BME280;18457;52.432;16.914;2022-11-06T02:55:58;100916.45;;;6.06;96.67
31911;BME280;18457;52.432;16.914;2022-11-06T02:58:37;100915.85;;;5.91;97.27
31911;BME280;18457;52.432;16.914;2022-11-06T03:01:21;100922.70;;;5.98;98.08
31911;BME280;18457;52.432;16.914;2022-11-06T03:03:57;100920.02;;;6.03;97.39
31911;BME280;18457;52.432;16.914;2022-11-06T03:06:34;100923.27;;;6.07;97.11
31911;BME280;18457;52.432;16.914;2022-11-06T03:09:11;100922.71;;;5.98;97.32
31911;BME280;18457;52.432;16.914;2022-11-06T03:11:45;100925.87;;;5.83;98.21
31911;BME280;18457;52.432;16.914;2022-11-06T03:14:28;100923.77;;;5.93;97.89
31911;BME280;18457;52.432;16.914;2022-11-06T03:17:10;100924.30;;;5.91;97.59
31911;BME280;18457;52.432;16.914;2022-11-06T03:19:47;100921.60;;;5.90;97.88
31911;BME280;18457;52.432;16.914;2022-11-06T03:22:27;100912.83;;;5.93;97.62
31911;BME280;18457;52.432;16.914;2022-11-06T03:25:08;100913.55;;;5.93;97.32
31911;BME280;18457;52.432;16.914;2022-11-06T03:27:50;100916.20;;;5.84;97.85
31911;BME280;18457;52.432;16.914;2022-11-06T03:30:26;100915.16;;;5.93;97.56
31911;BME280;18457;52.432;16.914;2022-11-06T03:33:01;100916.23;;;5.91;96.91
31911;BME280;18457;52.432;16.914;2022-11-06T03:35:42;100916.33;;;5.77;97.43
31911;BME280;18457;52.432;16.914;2022-11-06T03:38:18;100921.70;;;5.76;97.73
31911;BME280;18457;52.432;16.914;2022-11-06T03:40:53;100920.68;;;5.84;97.02
31911;BME280;18457;52.432;16.914;2022-11-06T03:43:29;100918.92;;;5.89;96.94
31911;BME280;18457;52.432;16.914;2022-11-06T03:46:05;100922.83;;;5.85;97.07
31911;BME280;18457;52.432;16.914;2022-11-06T03:48:41;100921.00;;;5.81;97.35
31911;BME280;18457;52.432;16.914;2022-11-06T03:51:18;100921.58;;;5.84;97.35
31911;BME280;18457;52.432;16.914;2022-11-06T03:53:54;100921.01;;;5.81;96.96
31911;BME280;18457;52.432;16.914;2022-11-06T03:56:32;100925.11;;;5.76;96.93
31911;BME280;18457;52.432;16.914;2022-11-06T03:59:07;100924.20;;;5.76;96.75
31911;BME280;18457;52.432;16.914;2022-11-06T04:01:43;100925.86;;;5.82;96.40
31911;BME280;18457;52.432;16.914;2022-11-06T04:04:20;100916.94;;;5.85;96.19
31911;BME280;18457;52.432;16.914;2022-11-06T04:06:58;100919.43;;;5.86;95.93
31911;BME280;18457;52.432;16.914;2022-11-06T04:09:34;100913.33;;;5.83;96.29
31911;BME280;18457;52.432;16.914;2022-11-06T04:12:26;100913.17;;;5.89;96.60
31911;BME280;18457;52.432;16.914;2022-11-06T04:15:19;100913.71;;;5.88;97.08
31911;BME280;18457;52.432;16.914;2022-11-06T04:17:52;100905.30;;;5.94;96.95
31911;BME280;18457;52.432;16.914;2022-11-06T04:20:25;100903.50;;;5.91;96.85
31911;BME280;18457;52.432;16.914;2022-11-06T04:23:22;100902.08;;;5.92;96.88
31911;BME280;18457;52.432;16.914;2022-11-06T04:26:03;100902.61;;;5.92;96.93
31911;BME280;18457;52.432;16.914;2022-11-06T04:29:01;100902.23;;;5.88;97.15
31911;BME280;18457;52.432;16.914;2022-11-06T04:31:43;100908.88;;;5.89;97.06
31911;BME280;18457;52.432;16.914;2022-11-06T04:34:24;100904.74;;;5.86;96.65
31911;BME280;18457;52.432;16.914;2022-11-06T04:37:03;100910.47;;;5.84;96.76
31911;BME280;18457;52.432;16.914;2022-11-06T04:39:46;100910.48;;;5.85;96.57
31911;BME280;18457;52.432;16.914;2022-11-06T04:42:26;100908.13;;;5.82;96.24
31911;BME280;18457;52.432;16.914;2022-11-06T04:45:02;100905.19;;;5.72;96.27
31911;BME280;18457;52.432;16.914;2022-11-06T04:47:36;100904.30;;;5.75;95.86
31911;BME280;18457;52.432;16.914;2022-11-06T04:50:11;100901.41;;;5.69;95.12
31911;BME280;18457;52.432;16.914;2022-11-06T04:52:45;100899.08;;;5.67;95.04
31911;BME280;18457;52.432;16.914;2022-11-06T04:55:18;100900.15;;;5.64;95.09
31911;BME280;18457;52.432;16.914;2022-11-06T04:57:50;100897.80;;;5.61;94.97
31911;BME280;18457;52.432;16.914;2022-11-06T05:00:22;100899.58;;;5.53;94.80
31911;BME280;18457;52.432;16.914;2022-11-06T05:02:54;100902.29;;;5.61;94.80
31911;BME280;18457;52.432;16.914;2022-11-06T05:05:26;100899.05;;;5.57;94.60
31911;BME280;18457;52.432;16.914;2022-11-06T05:07:57;100903.36;;;5.59;94.61
31911;BME280;18457;52.432;16.914;2022-11-06T05:10:29;100903.52;;;5.53;94.53
31911;BME280;18457;52.432;16.914;2022-11-06T05:13:01;100901.66;;;5.40;94.92
31911;BME280;18457;52.432;16.914;2022-11-06T05:15:32;100901.09;;;5.34;95.23
31911;BME280;18457;52.432;16.914;2022-11-06T05:18:05;100908.64;;;5.40;95.09
31911;BME280;18457;52.432;16.914;2022-11-06T05:20:37;100908.27;;;5.35;95.17
31911;BME280;18457;52.432;16.914;2022-11-06T05:23:09;100912.88;;;5.28;95.16
31911;BME280;18457;52.432;16.914;2022-11-06T05:25:40;100912.46;;;5.19;95.89
31911;BME280;18457;52.432;16.914;2022-11-06T05:28:12;100905.50;;;5.23;96.35
31911;BME280;18457;52.432;16.914;2022-11-06T05:30:45;100910.15;;;5.21;96.47
31911;BME280;18457;52.432;16.914;2022-11-06T05:33:17;100905.13;;;5.19;96.28
31911;BME280;18457;52.432;16.914;2022-11-06T05:35:48;100909.59;;;5.18;96.64
31911;BME280;18457;52.432;16.914;2022-11-06T05:38:22;100909.58;;;5.15;97.03
31911;BME280;18457;52.432;16.914;2022-11-06T05:40:54;100907.81;;;5.18;97.18
31911;BME280;18457;52.432;16.914;2022-11-06T05:43:26;100906.19;;;5.15;97.37
31911;BME280;18457;52.432;16.914;2022-11-06T05:45:58;100910.64;;;5.12;97.56
31911;BME280;18457;52.432;16.914;2022-11-06T05:48:30;100913.71;;;5.18;97.93
31911;BME280;18457;52.432;16.914;2022-11-06T05:51:03;100908.70;;;5.16;97.41
31911;BME280;18457;52.432;16.914;2022-11-06T05:53:37;100907.38;;;5.06;97.62
31911;BME280;18457;52.432;16.914;2022-11-06T05:56:09;100907.43;;;4.87;99.19
31911;BME280;18457;52.432;16.914;2022-11-06T05:58:41;100913.20;;;4.95;99.94
31911;BME280;18457;52.432;16.914;2022-11-06T06:01:13;100914.92;;;5.11;99.72
31911;BME280;18457;52.432;16.914;2022-11-06T06:03:45;100910.84;;;5.14;98.78
31911;BME280;18457;52.432;16.914;2022-11-06T06:06:17;100915.52;;;5.19;98.49
31911;BME280;18457;52.432;16.914;2022-11-06T06:08:49;100913.35;;;5.18;98.48
31911;BME280;18457;52.432;16.914;2022-11-06T06:11:21;100918.21;;;5.23;98.01
31911;BME280;18457;52.432;16.914;2022-11-06T06:13:52;100921.05;;;5.18;97.81
31911;BME280;18457;52.432;16.914;2022-11-06T06:16:24;100922.84;;;5.18;97.27
31911;BME280;18457;52.432;16.914;2022-11-06T06:18:56;100922.86;;;5.20;97.26
31911;BME280;18457;52.432;16.914;2022-11-06T06:21:28;100922.16;;;5.22;96.90
31911;BME280;18457;52.432;16.914;2022-11-06T06:24:00;100925.55;;;5.21;96.55
31911;BME280;18457;52.432;16.914;2022-11-06T06:26:32;100927.73;;;4.98;97.34
31911;BME280;18457;52.432;16.914;2022-11-06T06:29:04;100929.37;;;5.00;98.23
31911;BME280;18457;52.432;16.914;2022-11-06T06:31:35;100933.92;;;5.12;98.05
31911;BME280;18457;52.432;16.914;2022-11-06T06:34:07;100938.25;;;5.16;97.71
31911;BME280;18457;52.432;16.914;2022-11-06T06:36:39;100930.90;;;5.16;97.45
31911;BME280;18457;52.432;16.914;2022-11-06T06:39:11;100939.15;;;5.20;97.28
31911;BME280;18457;52.432;16.914;2022-11-06T06:41:42;100940.05;;;5.21;97.31
31911;BME280;18457;52.432;16.914;2022-11-06T06:44:15;100941.85;;;5.21;97.37
31911;BME280;18457;52.432;16.914;2022-11-06T06:46:47;100937.01;;;5.19;97.58
31911;BME280;18457;52.432;16.914;2022-11-06T06:49:18;100943.83;;;5.21;97.89
31911;BME280;18457;52.432;16.914;2022-11-06T06:51:50;100942.40;;;5.24;98.12
31911;BME280;18457;52.432;16.914;2022-11-06T06:54:22;100942.38;;;5.19;98.49
31911;BME280;18457;52.432;16.914;2022-11-06T06:56:57;100943.86;;;5.27;98.15
31911;BME280;18457;52.432;16.914;2022-11-06T06:59:30;100940.86;;;5.35;98.00
31911;BME280;18457;52.432;16.914;2022-11-06T07:02:02;100939.45;;;5.39;98.11
31911;BME280;18457;52.432;16.914;2022-11-06T07:04:34;100937.30;;;5.39;98.26
31911;BME280;18457;52.432;16.914;2022-11-06T07:07:06;100939.42;;;5.32;99.04
31911;BME280;18457;52.432;16.914;2022-11-06T07:09:37;100942.18;;;5.46;98.47
31911;BME280;18457;52.432;16.914;2022-11-06T07:12:09;100948.11;;;5.50;98.01
31911;BME280;18457;52.432;16.914;2022-11-06T07:14:41;100943.50;;;5.59;97.21
31911;BME280;18457;52.432;16.914;2022-11-06T07:17:13;100944.06;;;5.62;96.88
31911;BME280;18457;52.432;16.914;2022-11-06T07:19:45;100947.65;;;5.65;97.14
31911;BME280;18457;52.432;16.914;2022-11-06T07:22:17;100947.31;;;5.71;96.51
31911;BME280;18457;52.432;16.914;2022-11-06T07:25:04;100947.51;;;5.72;96.98
31911;BME280;18457;52.432;16.914;2022-11-06T07:27:37;100951.98;;;5.73;97.49
31911;BME280;18457;52.432;16.914;2022-11-06T07:30:12;100947.88;;;5.78;97.41
31911;BME280;18457;52.432;16.914;2022-11-06T07:32:46;100943.95;;;5.81;97.39
31911;BME280;18457;52.432;16.914;2022-11-06T07:35:19;100940.77;;;5.86;97.43
31911;BME280;18457;52.432;16.914;2022-11-06T07:37:50;100944.38;;;5.90;96.97
31911;BME280;18457;52.432;16.914;2022-11-06T07:40:22;100943.30;;;5.88;97.46
31911;BME280;18457;52.432;16.914;2022-11-06T07:42:54;100946.54;;;5.95;97.24
31911;BME280;18457;52.432;16.914;2022-11-06T07:45:27;100953.73;;;5.99;97.38
31911;BME280;18457;52.432;16.914;2022-11-06T07:47:58;100949.80;;;6.02;97.56
31911;BME280;18457;52.432;16.914;2022-11-06T07:50:31;100951.77;;;6.00;98.29
31911;BME280;18457;52.432;16.914;2022-11-06T07:53:03;100945.66;;;5.99;98.65
31911;BME280;18457;52.432;16.914;2022-11-06T07:55:36;100948.16;;;5.94;99.54
31911;BME280;18457;52.432;16.914;2022-11-06T07:58:12;100953.92;;;6.01;99.71
31911;BME280;18457;52.432;16.914;2022-11-06T08:00:47;100950.36;;;6.09;99.60
31911;BME280;18457;52.432;16.914;2022-11-06T08:03:22;100943.19;;;6.09;99.87
31911;BME280;18457;52.432;16.914;2022-11-06T08:05:56;100940.34;;;6.18;99.86
31911;BME280;18457;52.432;16.914;2022-11-06T08:08:30;100939.25;;;6.15;99.98
31911;BME280;18457;52.432;16.914;2022-11-06T08:11:05;100941.42;;;6.26;99.92
31911;BME280;18457;52.432;16.914;2022-11-06T08:13:39;100937.67;;;6.33;99.42
31911;BME280;18457;52.432;16.914;2022-11-06T08:16:15;100940.36;;;6.38;98.90
31911;BME280;18457;52.432;16.914;2022-11-06T08:18:48;100942.52;;;6.44;99.12
31911;BME280;18457;52.432;16.914;2022-11-06T08:21:18;100942.89;;;6.52;99.45
31911;BME280;18457;52.432;16.914;2022-11-06T08:23:50;100941.11;;;6.58;99.43
31911;BME280;18457;52.432;16.914;2022-11-06T08:26:22;100941.30;;;6.63;99.25
31911;BME280;18457;52.432;16.914;2022-11-06T08:28:54;100944.52;;;6.72;99.74
31911;BME280;18457;52.432;16.914;2022-11-06T08:31:27;100947.41;;;6.81;99.95
31911;BME280;18457;52.432;16.914;2022-11-06T08:33:59;100946.15;;;6.82;99.86
31911;BME280;18457;52.432;16.914;2022-11-06T08:36:32;100945.96;;;6.91;100.00
31911;BME280;18457;52.432;16.914;2022-11-06T08:39:07;100942.90;;;7.00;100.00
31911;BME280;18457;52.432;16.914;2022-11-06T08:41:42;100944.86;;;7.11;99.92
31911;BME280;18457;52.432;16.914;2022-11-06T08:44:13;100947.02;;;7.21;99.36
31911;BME280;18457;52.432;16.914;2022-11-06T08:46:48;100935.13;;;7.29;99.39
31911;BME280;18457;52.432;16.914;2022-11-06T08:49:22;100941.41;;;7.35;99.65
31911;BME280;18457;52.432;16.914;2022-11-06T08:51:56;100941.39;;;7.41;99.07
31911;BME280;18457;52.432;16.914;2022-11-06T08:54:30;100946.23;;;7.50;98.12
31911;BME280;18457;52.432;16.914;2022-11-06T08:57:05;100947.83;;;7.52;98.08
31911;BME280;18457;52.432;16.914;2022-11-06T08:59:37;100945.09;;;7.65;98.03
31911;BME280;18457;52.432;16.914;2022-11-06T09:02:13;100939.83;;;7.78;97.63
31911;BME280;18457;52.432;16.914;2022-11-06T09:04:46;100938.88;;;7.90;97.40
31911;BME280;18457;52.432;16.914;2022-11-06T09:07:17;100939.00;;;7.99;96.85
31911;BME280;18457;52.432;16.914;2022-11-06T09:09:49;100943.98;;;8.11;96.33
31911;BME280;18457;52.432;16.914;2022-11-06T09:12:21;100929.21;;;8.14;95.59
31911;BME280;18457;52.432;16.914;2022-11-06T09:14:53;100937.64;;;8.18;95.92
31911;BME280;18457;52.432;16.914;2022-11-06T09:17:26;100937.98;;;8.27;95.19
31911;BME280;18457;52.432;16.914;2022-11-06T09:19:58;100941.11;;;8.45;94.32
31911;BME280;18457;52.432;16.914;2022-11-06T09:22:32;100937.23;;;8.58;93.80
31911;BME280;18457;52.432;16.914;2022-11-06T09:25:06;100937.80;;;8.78;92.91
31911;BME280;18457;52.432;16.914;2022-11-06T09:27:46;100932.87;;;8.86;92.64
31911;BME280;18457;52.432;16.914;2022-11-06T09:30:26;100931.45;;;9.02;91.90
31911;BME280;18457;52.432;16.914;2022-11-06T09:33:01;100930.44;;;9.14;91.00
31911;BME280;18457;52.432;16.914;2022-11-06T09:35:34;100924.88;;;9.29;90.38
31911;BME280;18457;52.432;16.914;2022-11-06T09:38:09;100923.95;;;9.48;89.87
31911;BME280;18457;52.432;16.914;2022-11-06T09:40:48;100918.38;;;9.61;89.23
31911;BME280;18457;52.432;16.914;2022-11-06T09:43:38;100912.63;;;9.75;88.24
31911;BME280;18457;52.432;16.914;2022-11-06T09:46:39;100916.85;;;9.69;87.39
31911;BME280;18457;52.432;16.914;2022-11-06T09:49:20;100920.00;;;9.78;86.07
31911;BME280;18457;52.432;16.914;2022-11-06T09:52:00;100919.02;;;9.83;84.53
31911;BME280;18457;52.432;16.914;2022-11-06T09:54:39;100921.02;;;9.95;84.05
31911;BME280;18457;52.432;16.914;2022-11-06T09:57:21;100918.83;;;10.12;83.41
31911;BME280;18457;52.432;16.914;2022-11-06T09:59:55;100914.39;;;10.32;82.57
31911;BME280;18457;52.432;16.914;2022-11-06T10:02:31;100914.25;;;10.42;81.94
31911;BME280;18457;52.432;16.914;2022-11-06T10:05:11;100909.34;;;10.55;81.25
31911;BME280;18457;52.432;16.914;2022-11-06T10:07:49;100905.71;;;10.78;80.91
31911;BME280;18457;52.432;16.914;2022-11-06T10:10:27;100901.40;;;10.87;79.80
31911;BME280;18457;52.432;16.914;2022-11-06T10:13:12;100892.67;;;10.90;79.23
31911;BME280;18457;52.432;16.914;2022-11-06T10:15:51;100890.95;;;11.15;77.88
31911;BME280;18457;52.432;16.914;2022-11-06T10:18:37;100891.38;;;11.21;76.86
31911;BME280;18457;52.432;16.914;2022-11-06T10:21:21;100888.30;;;11.31;76.57
31911;BME280;18457;52.432;16.914;2022-11-06T10:23:56;100876.73;;;11.47;76.05
31911;BME280;18457;52.432;16.914;2022-11-06T10:26:38;100880.79;;;11.64;75.99
31911;BME280;18457;52.432;16.914;2022-11-06T10:32:29;100878.35;;;12.09;73.59
31911;BME280;18457;52.432;16.914;2022-11-06T10:35:07;100875.05;;;12.11;72.89
31911;BME280;18457;52.432;16.914;2022-11-06T10:37:49;100870.02;;;12.40;72.84
31911;BME280;18457;52.432;16.914;2022-11-06T10:40:27;100865.14;;;12.39;71.89
31911;BME280;18457;52.432;16.914;2022-11-06T10:43:11;100865.52;;;12.46;71.38
31911;BME280;18457;52.432;16.914;2022-11-06T10:45:48;100858.41;;;12.48;71.34
31911;BME280;18457;52.432;16.914;2022-11-06T10:48:26;100856.33;;;12.66;70.48
31911;BME280;18457;52.432;16.914;2022-11-06T10:51:18;100854.77;;;12.83;69.67
31911;BME280;18457;52.432;16.914;2022-11-06T10:54:02;100847.44;;;12.80;68.81
31911;BME280;18457;52.432;16.914;2022-11-06T10:56:51;100833.46;;;12.73;69.65
31911;BME280;18457;52.432;16.914;2022-11-06T10:59:26;100828.65;;;12.98;68.55
31911;BME280;18457;52.432;16.914;2022-11-06T11:01:59;100827.98;;;13.10;68.61
31911;BME280;18457;52.432;16.914;2022-11-06T11:04:33;100820.04;;;13.34;69.39
31911;BME280;18457;52.432;16.914;2022-11-06T11:07:13;100818.38;;;13.53;69.35
31911;BME280;18457;52.432;16.914;2022-11-06T11:09:51;100819.28;;;13.66;68.58
31911;BME280;18457;52.432;16.914;2022-11-06T11:12:28;100815.69;;;13.70;67.89
31911;BME280;18457;52.432;16.914;2022-11-06T11:15:09;100817.61;;;13.49;68.58
31911;BME280;18457;52.432;16.914;2022-11-06T11:17:42;100816.94;;;13.59;69.04
31911;BME280;18457;52.432;16.914;2022-11-06T11:20:36;100809.48;;;13.72;68.05
31911;BME280;18457;52.432;16.914;2022-11-06T11:23:15;100809.67;;;13.83;67.38
31911;BME280;18457;52.432;16.914;2022-11-06T11:25:48;100802.80;;;13.88;67.22
31911;BME280;18457;52.432;16.914;2022-11-06T11:28:35;100803.17;;;13.88;66.48
31911;BME280;18457;52.432;16.914;2022-11-06T11:31:10;100799.59;;;13.97;66.48
31911;BME280;18457;52.432;16.914;2022-11-06T11:33:54;100794.21;;;13.95;66.04
31911;BME280;18457;52.432;16.914;2022-11-06T11:36:47;100788.96;;;14.06;66.17
31911;BME280;18457;52.432;16.914;2022-11-06T11:39:22;100783.83;;;14.07;65.93
31911;BME280;18457;52.432;16.914;2022-11-06T11:42:16;100782.54;;;14.08;65.23
31911;BME280;18457;52.432;16.914;2022-11-06T11:45:16;100777.98;;;14.25;65.46
31911;BME280;18457;52.432;16.914;2022-11-06T11:47:50;100771.26;;;14.25;65.23
31911;BME280;18457;52.432;16.914;2022-11-06T11:50:31;100770.40;;;14.23;65.13
31911;BME280;18457;52.432;16.914;2022-11-06T11:53:13;100764.77;;;14.29;64.56
31911;BME280;18457;52.432;16.914;2022-11-06T11:55:50;100765.27;;;14.31;64.35
31911;BME280;18457;52.432;16.914;2022-11-06T11:58:26;100759.34;;;14.17;64.57
31911;BME280;18457;52.432;16.914;2022-11-06T12:01:00;100757.45;;;14.19;65.02
31911;BME280;18457;52.432;16.914;2022-11-06T12:03:37;100755.52;;;14.23;65.39
31911;BME280;18457;52.432;16.914;2022-11-06T12:06:15;100754.36;;;14.14;65.26
31911;BME280;18457;52.432;16.914;2022-11-06T12:08:51;100754.45;;;14.17;64.39
31911;BME280;18457;52.432;16.914;2022-11-06T12:11:26;100752.70;;;14.03;64.34
31911;BME280;18457;52.432;16.914;2022-11-06T12:14:30;100753.07;;;13.76;64.94
31911;BME280;18457;52.432;16.914;2022-11-06T12:17:07;100750.77;;;13.79;65.53
31911;BME280;18457;52.432;16.914;2022-11-06T12:19:44;100747.57;;;14.00;64.83
31911;BME280;18457;52.432;16.914;2022-11-06T12:22:23;100746.06;;;14.01;64.84
31911;BME280;18457;52.432;16.914;2022-11-06T12:25:02;100745.81;;;13.97;65.59
31911;BME280;18457;52.432;16.914;2022-11-06T12:27:39;100747.56;;;14.11;65.59
31911;BME280;18457;52.432;16.914;2022-11-06T12:30:15;100741.91;;;14.17;65.14
31911;BME280;18457;52.432;16.914;2022-11-06T12:32:57;100739.37;;;14.17;65.70
31911;BME280;18457;52.432;16.914;2022-11-06T12:35:33;100737.26;;;14.25;65.97
31911;BME280;18457;52.432;16.914;2022-11-06T12:38:18;100737.45;;;14.25;65.74
31911;BME280;18457;52.432;16.914;2022-11-06T12:40:56;100734.16;;;14.26;66.18
31911;BME280;18457;52.432;16.914;2022-11-06T12:43:35;100729.17;;;14.17;65.03
31911;BME280;18457;52.432;16.914;2022-11-06T12:46:30;100727.09;;;14.20;65.25
31911;BME280;18457;52.432;16.914;2022-11-06T12:52:24;100726.95;;;13.91;64.54
31911;BME280;18457;52.432;16.914;2022-11-06T12:55:12;100731.30;;;13.80;64.39
31911;BME280;18457;52.432;16.914;2022-11-06T12:58:04;100725.37;;;13.56;64.74
31911;BME280;18457;52.432;16.914;2022-11-06T13:00:44;100724.26;;;13.79;63.87
31911;BME280;18457;52.432;16.914;2022-11-06T13:04:10;100719.82;;;13.81;64.10
31911;BME280;18457;52.432;16.914;2022-11-06T13:07:21;100722.20;;;13.81;63.91
31911;BME280;18457;52.432;16.914;2022-11-06T13:10:14;100722.24;;;13.85;63.70
31911;BME280;18457;52.432;16.914;2022-11-06T13:12:55;100722.73;;;13.87;63.86
31911;BME280;18457;52.432;16.914;2022-11-06T13:15:33;100717.64;;;13.76;63.86
31911;BME280;18457;52.432;16.914;2022-11-06T13:18:17;100721.87;;;13.75;63.95
31911;BME280;18457;52.432;16.914;2022-11-06T13:20:55;100718.05;;;13.74;64.10
31911;BME280;18457;52.432;16.914;2022-11-06T13:23:32;100716.46;;;13.73;64.35
31911;BME280;18457;52.432;16.914;2022-11-06T13:26:11;100713.09;;;13.87;69.86
31911;BME280;18457;52.432;16.914;2022-11-06T13:28:48;100712.70;;;15.17;84.17
31911;BME280;18457;52.432;16.914;2022-11-06T13:31:32;100710.77;;;14.50;66.12
31911;BME280;18457;52.432;16.914;2022-11-06T13:34:09;100708.48;;;14.27;64.84
31911;BME280;18457;52.432;16.914;2022-11-06T13:36:48;100713.00;;;13.96;64.72
31911;BME280;18457;52.432;16.914;2022-11-06T13:39:26;100709.96;;;13.77;65.21
31911;BME280;18457;52.432;16.914;2022-11-06T13:42:03;100704.27;;;13.68;65.36
31911;BME280;18457;52.432;16.914;2022-11-06T13:44:36;100706.29;;;13.73;65.43
31911;BME280;18457;52.432;16.914;2022-11-06T13:47:16;100704.29;;;13.62;65.49
31911;BME280;18457;52.432;16.914;2022-11-06T13:49:58;100697.36;;;13.46;66.71
31911;BME280;18457;52.432;16.914;2022-11-06T13:52:36;100694.20;;;13.48;66.74
31911;BME280;18457;52.432;16.914;2022-11-06T13:55:20;100688.65;;;13.40;66.87
31911;BME280;18457;52.432;16.914;2022-11-06T13:58:12;100689.69;;;13.30;66.90
31911;BME280;18457;52.432;16.914;2022-11-06T14:00:55;100684.86;;;13.22;67.28
31911;BME280;18457;52.432;16.914;2022-11-06T14:04:16;100683.69;;;13.19;67.84
31911;BME280;18457;52.432;16.914;2022-11-06T14:06:54;100687.38;;;12.97;68.30
31911;BME280;18457;52.432;16.914;2022-11-06T14:09:31;100686.66;;;12.97;68.18
31911;BME280;18457;52.432;16.914;2022-11-06T14:12:11;100683.88;;;12.87;67.90
31911;BME280;18457;52.432;16.914;2022-11-06T14:14:47;100685.76;;;12.78;67.96
31911;BME280;18457;52.432;16.914;2022-11-06T14:17:24;100675.44;;;12.78;68.49
31911;BME280;18457;52.432;16.914;2022-11-06T14:20:25;100682.69;;;12.78;68.54
31911;BME280;18457;52.432;16.914;2022-11-06T14:26:06;100676.70;;;12.52;68.91
31911;BME280;18457;52.432;16.914;2022-11-06T14:28:41;100674.52;;;12.46;69.16
31911;BME280;18457;52.432;16.914;2022-11-06T14:34:30;100678.02;;;12.31;69.58
31911;BME280;18457;52.432;16.914;2022-11-06T14:40:13;100670.17;;;12.26;70.41
31911;BME280;18457;52.432;16.914;2022-11-06T14:42:56;100670.06;;;12.23;70.67
31911;BME280;18457;52.432;16.914;2022-11-06T14:45:28;100665.54;;;12.17;70.86